createdAt,value
2019-02-19T00:02:17.658Z,99.90
2019-02-19T00:07:23.755Z,99.90
2019-02-19T00:12:29.738Z,99.90
2019-02-19T00:17:35.615Z,99.90
2019-02-19T00:22:41.629Z,99.90
2019-02-19T00:27:47.810Z,99.90
2019-02-19T00:32:53.920Z,99.90
2019-02-19T00:37:59.989Z,99.90
2019-02-19T00:43:06.077Z,99.90
2019-02-19T00:48:12.270Z,99.90
2019-02-19T00:53:18.430Z,99.90
2019-02-19T00:58:24.385Z,99.90
2019-02-19T01:03:30.471Z,99.90
2019-02-19T01:08:36.560Z,99.90
2019-02-19T01:13:42.630Z,99.90
2019-02-19T01:18:48.494Z,99.90
2019-02-19T01:23:54.360Z,99.90
2019-02-19T01:29:00.376Z,99.90
2019-02-19T01:34:06.287Z,99.90
2019-02-19T01:39:12.204Z,99.90
2019-02-19T01:44:18.157Z,99.90
2019-02-19T01:49:24.104Z,99.90
2019-02-19T01:54:30.185Z,99.90
2019-02-19T01:59:36.185Z,99.90
2019-02-19T02:04:42.263Z,99.90
2019-02-19T02:09:48.396Z,99.90
2019-02-19T02:14:54.484Z,99.90
2019-02-19T02:20:00.474Z,99.90
2019-02-19T02:25:06.359Z,99.90
2019-02-19T02:30:12.433Z,99.90
2019-02-19T02:35:18.472Z,99.90
2019-02-19T02:40:24.652Z,99.90
2019-02-19T02:45:30.642Z,99.90
2019-02-19T02:50:36.704Z,99.90
2019-02-19T02:55:42.689Z,99.90
2019-02-19T03:00:48.856Z,99.90
2019-02-19T03:06:22.225Z,99.90
2019-02-19T03:11:28.253Z,99.90
2019-02-19T03:16:34.232Z,99.90
2019-02-19T03:21:40.186Z,99.90
2019-02-19T03:26:46.453Z,99.90
2019-02-19T03:31:52.544Z,99.90
2019-02-19T03:36:58.524Z,99.90
2019-02-19T03:42:04.581Z,99.90
2019-02-19T03:47:10.603Z,99.90
2019-02-19T03:52:16.757Z,99.90
2019-02-19T03:57:22.933Z,99.90
2019-02-19T04:02:28.903Z,99.90
2019-02-19T04:07:34.944Z,99.90
2019-02-19T04:12:41.094Z,99.90
2019-02-19T04:17:47.237Z,99.90
2019-02-19T04:22:53.313Z,99.90
2019-02-19T04:27:59.171Z,99.90
2019-02-19T04:33:05.024Z,99.90
2019-02-19T04:38:11.018Z,99.90
2019-02-19T04:43:16.900Z,99.90
2019-02-19T04:48:22.997Z,99.90
2019-02-19T04:53:28.913Z,99.90
2019-02-19T04:58:35.098Z,99.90
2019-02-19T05:03:41.206Z,99.90
2019-02-19T05:08:47.262Z,99.90
2019-02-19T05:13:53.409Z,99.90
2019-02-19T05:18:59.587Z,99.90
2019-02-19T05:24:05.773Z,99.90
2019-02-19T05:29:11.743Z,99.90
2019-02-19T05:34:17.904Z,99.90
2019-02-19T05:39:24.025Z,99.80
2019-02-19T05:44:29.961Z,99.60
2019-02-19T05:49:35.971Z,99.50
2019-02-19T05:54:41.846Z,99.50
2019-02-19T05:59:47.899Z,99.40
2019-02-19T06:04:54.047Z,99.30
2019-02-19T06:10:00.264Z,99.50
2019-02-19T06:15:07.155Z,99.70
2019-02-19T06:20:13.238Z,99.70
2019-02-19T06:25:19.267Z,99.80
2019-02-19T06:30:25.452Z,99.80
2019-02-19T06:35:31.600Z,99.90
2019-02-19T06:40:37.830Z,99.70
2019-02-19T06:45:44.035Z,99.40
2019-02-19T06:50:50.061Z,99.90
2019-02-19T06:55:56.178Z,99.80
2019-02-19T07:01:02.317Z,99.60
2019-02-19T07:06:08.304Z,99.40
2019-02-19T07:11:14.347Z,99.30
2019-02-19T07:16:20.240Z,99.20
2019-02-19T07:21:26.119Z,98.90
2019-02-19T07:26:32.409Z,98.50
2019-02-19T07:31:38.585Z,98.90
2019-02-19T07:36:44.645Z,98.50
2019-02-19T07:41:50.849Z,98.40
2019-02-19T07:46:56.794Z,98.60
2019-02-19T07:52:02.811Z,97.80
2019-02-19T07:57:08.787Z,97.40
2019-02-19T08:02:14.795Z,97.20
2019-02-19T08:07:20.816Z,96.70
2019-02-19T08:12:27.123Z,96.00
2019-02-19T08:17:33.703Z,95.50
2019-02-19T08:22:39.885Z,95.50
2019-02-19T08:27:46.015Z,95.50
2019-02-19T08:32:51.984Z,94.10
2019-02-19T08:37:57.976Z,94.50
2019-02-19T08:43:03.959Z,93.10
2019-02-19T08:48:09.980Z,92.70
2019-02-19T08:53:16.153Z,92.30
2019-02-19T08:58:23.177Z,90.40
2019-02-19T09:03:29.162Z,90.40
2019-02-19T09:08:35.320Z,87.90
2019-02-19T09:13:42.519Z,81.30
2019-02-19T09:18:48.700Z,66.90
2019-02-19T09:23:55.745Z,63.40
2019-02-19T09:29:01.869Z,58.50
2019-02-19T09:34:07.888Z,59.20
2019-02-19T09:39:13.916Z,55.80
2019-02-19T09:44:20.000Z,51.60
2019-02-19T09:49:26.152Z,50.10
2019-02-19T09:54:32.179Z,47.90
2019-02-19T09:59:38.231Z,53.20
2019-02-19T10:04:44.212Z,52.30
2019-02-19T10:09:50.145Z,48.60
2019-02-19T10:14:56.125Z,46.80
2019-02-19T10:20:02.316Z,51.60
2019-02-19T10:25:10.540Z,50.40
2019-02-19T10:30:16.701Z,52.20
2019-02-19T10:35:22.890Z,53.90
2019-02-19T10:40:28.981Z,55.20
2019-02-19T10:45:34.865Z,58.40
2019-02-19T10:50:40.947Z,61.60
2019-02-19T10:55:47.092Z,64.50
2019-02-19T11:00:53.069Z,68.60
2019-02-19T11:05:59.026Z,66.80
2019-02-19T11:11:04.908Z,69.60
2019-02-19T11:16:10.975Z,69.10
2019-02-19T11:21:19.564Z,70.20
2019-02-19T11:26:24.668Z,70.00
2019-02-19T11:31:30.748Z,71.90
2019-02-19T11:36:36.747Z,71.50
2019-02-19T11:41:42.600Z,72.10
2019-02-19T11:46:48.676Z,74.50
2019-02-19T11:51:54.831Z,77.70
2019-02-19T11:57:00.824Z,78.10
2019-02-19T12:02:11.337Z,79.40
2019-02-19T12:07:17.389Z,81.00
2019-02-19T12:12:23.482Z,82.70
2019-02-19T12:17:29.521Z,82.20
2019-02-19T12:22:35.573Z,83.00
2019-02-19T12:27:41.680Z,83.10
2019-02-19T12:32:47.728Z,85.60
2019-02-19T12:37:53.605Z,86.00
2019-02-19T12:42:59.592Z,87.80
2019-02-19T12:48:05.478Z,90.20
2019-02-19T12:53:11.620Z,90.60
2019-02-19T12:58:17.908Z,90.70
2019-02-19T13:03:23.989Z,91.80
2019-02-19T13:08:30.046Z,92.70
2019-02-19T13:13:36.210Z,93.20
2019-02-19T13:18:42.303Z,94.00
2019-02-19T13:23:48.399Z,94.90
2019-02-19T13:28:54.504Z,94.40
2019-02-19T13:34:00.634Z,94.60
2019-02-19T13:39:07.541Z,95.90
2019-02-19T13:44:13.602Z,95.70
2019-02-19T13:49:19.554Z,97.20
2019-02-19T13:54:36.533Z,96.80
2019-02-19T13:59:42.567Z,96.10
2019-02-19T14:04:49.657Z,96.80
2019-02-19T14:09:55.659Z,96.20
2019-02-19T14:15:11.542Z,96.70
2019-02-19T14:20:32.525Z,97.40
2019-02-19T14:26:06.547Z,97.70
2019-02-19T14:31:30.239Z,98.50
2019-02-19T14:36:53.928Z,99.90
2019-02-19T14:42:34.010Z,99.90
2019-02-19T14:48:04.750Z,99.90
2019-02-19T14:53:29.637Z,99.90
2019-02-19T14:58:53.457Z,99.90
2019-02-19T15:04:17.047Z,99.90
2019-02-19T15:09:42.164Z,99.90
2019-02-19T15:15:05.751Z,99.90
2019-02-19T15:20:21.325Z,99.90
2019-02-19T15:25:46.379Z,99.90
2019-02-19T15:31:23.366Z,99.90
2019-02-19T15:36:57.099Z,99.90
2019-02-19T15:42:27.815Z,99.90
2019-02-19T15:47:54.496Z,99.90
2019-02-19T15:53:25.250Z,99.90
2019-02-19T15:59:02.266Z,99.90
2019-02-19T16:04:16.621Z,99.90
2019-02-19T16:09:41.507Z,99.90
2019-02-19T16:15:09.321Z,99.90
2019-02-19T16:20:40.073Z,99.90
2019-02-19T16:26:04.989Z,99.90
2019-02-19T16:31:28.877Z,99.90
2019-02-19T16:37:00.061Z,99.90
2019-02-19T16:42:34.043Z,99.90
2019-02-19T16:47:50.057Z,99.90
2019-02-19T16:53:03.424Z,99.90
2019-02-19T16:58:37.426Z,99.90
2019-02-19T17:03:56.713Z,99.90
2019-02-19T17:09:21.872Z,99.90
2019-02-19T17:14:55.787Z,99.90
2019-02-19T17:20:29.432Z,99.90
2019-02-19T17:25:56.429Z,99.90
2019-02-19T17:31:13.898Z,99.90
2019-02-19T17:36:38.945Z,99.90
2019-02-19T17:41:56.530Z,99.90
2019-02-19T17:47:32.542Z,99.90
2019-02-19T17:52:57.767Z,99.90
2019-02-19T17:58:21.642Z,99.90
2019-02-19T18:03:59.392Z,99.90
2019-02-19T18:09:28.165Z,99.90
2019-02-19T18:14:58.652Z,99.90
2019-02-19T18:20:04.685Z,99.90
2019-02-19T18:25:10.753Z,99.90
2019-02-19T18:30:16.916Z,99.90
2019-02-19T18:35:23.002Z,99.90
2019-02-19T18:40:29.389Z,99.90
2019-02-19T18:45:35.429Z,99.90
2019-02-19T18:50:41.642Z,99.90
2019-02-19T18:55:47.687Z,99.90
2019-02-19T19:00:54.793Z,99.90
2019-02-19T19:06:00.934Z,99.90
2019-02-19T19:11:07.264Z,99.90
2019-02-19T19:16:13.388Z,99.90
2019-02-19T19:21:19.418Z,99.90
2019-02-19T19:26:25.671Z,99.90
2019-02-19T19:31:33.861Z,99.90
2019-02-19T19:36:39.498Z,99.90
2019-02-19T19:41:45.572Z,99.90
2019-02-19T19:46:51.824Z,99.90
2019-02-19T19:51:57.977Z,99.90
2019-02-19T19:57:04.522Z,99.90
2019-02-19T20:02:10.758Z,99.90
2019-02-19T20:07:17.969Z,99.90
2019-02-19T20:12:24.040Z,99.90
2019-02-19T20:17:30.127Z,99.90
2019-02-19T20:22:36.296Z,99.90
2019-02-19T20:27:42.491Z,99.90
2019-02-19T20:32:48.694Z,99.90
2019-02-19T20:37:54.850Z,99.90
2019-02-19T20:43:00.909Z,99.90
2019-02-19T20:48:08.224Z,99.90
2019-02-19T20:53:14.366Z,99.90
2019-02-19T20:58:20.480Z,99.90
2019-02-19T21:03:26.575Z,99.90
2019-02-19T21:08:32.727Z,99.90
2019-02-19T21:13:38.891Z,99.90
2019-02-19T21:18:45.060Z,99.90
2019-02-19T21:23:51.119Z,99.90
2019-02-19T21:28:57.291Z,99.90
2019-02-19T21:34:03.452Z,99.90
2019-02-19T21:39:09.458Z,99.90
2019-02-19T21:44:17.117Z,99.90
2019-02-19T21:49:23.237Z,99.90
2019-02-19T21:54:29.424Z,99.90
2019-02-19T21:59:36.632Z,99.90
2019-02-19T22:04:42.592Z,99.90
2019-02-19T22:09:48.673Z,99.90
2019-02-19T22:14:55.677Z,99.90
2019-02-19T22:20:03.396Z,99.90
2019-02-19T22:25:10.832Z,99.90
2019-02-19T22:30:16.951Z,99.90
2019-02-19T22:35:23.060Z,99.90
2019-02-19T22:40:29.146Z,99.90
2019-02-19T22:45:35.223Z,99.90
2019-02-19T22:50:41.466Z,99.90
2019-02-19T22:56:05.367Z,99.90
2019-02-19T23:01:21.414Z,99.90
2019-02-19T23:06:27.858Z,99.90
2019-02-19T23:11:34.066Z,99.90
2019-02-19T23:16:40.092Z,99.90
2019-02-19T23:21:46.233Z,99.90
2019-02-19T23:26:52.360Z,99.90
2019-02-19T23:31:58.572Z,99.90
2019-02-19T23:37:24.724Z,99.90
2019-02-19T23:42:30.742Z,99.90
2019-02-19T23:47:36.924Z,99.90
2019-02-19T23:52:43.031Z,99.90
2019-02-19T23:57:49.091Z,99.90
